createdAt,value
2022-09-15T00:01:06.804Z,89.36
2022-09-15T00:03:33.827Z,89.73
2022-09-15T00:06:00.719Z,89.46
2022-09-15T00:08:27.582Z,89.06
2022-09-15T00:11:07.158Z,89.29
2022-09-15T00:13:35.999Z,88.94
2022-09-15T00:16:04.307Z,89.17
2022-09-15T00:18:32.371Z,89.19
2022-09-15T00:20:59.296Z,89.86
2022-09-15T00:23:26.325Z,89.65
2022-09-15T00:25:54.015Z,89.17
2022-09-15T00:28:22.925Z,89.58
2022-09-15T00:30:53.617Z,89.62
2022-09-15T00:33:22.810Z,89.90
2022-09-15T00:35:53.212Z,89.79
2022-09-15T00:38:21.187Z,90.30
2022-09-15T00:40:52.700Z,90.84
2022-09-15T00:43:42.082Z,90.65
2022-09-15T00:46:10.084Z,90.78
2022-09-15T00:48:51.788Z,91.30
2022-09-15T00:51:25.999Z,90.83
2022-09-15T00:53:53.559Z,90.99
2022-09-15T00:56:22.345Z,90.69
2022-09-15T00:58:58.740Z,90.38
2022-09-15T01:01:28.258Z,90.95
2022-09-15T01:03:55.747Z,91.16
2022-09-15T01:06:35.969Z,90.69
2022-09-15T01:09:16.586Z,91.52
2022-09-15T01:11:43.654Z,90.99
2022-09-15T01:14:11.072Z,90.42
2022-09-15T01:16:53.857Z,90.48
2022-09-15T01:19:53.642Z,90.46
2022-09-15T01:22:38.374Z,91.26
2022-09-15T01:25:51.936Z,90.61
2022-09-15T01:28:46.316Z,90.79
2022-09-15T01:32:00.336Z,91.87
2022-09-15T01:34:35.833Z,91.59
2022-09-15T01:37:11.249Z,91.70
2022-09-15T01:39:43.265Z,92.38
2022-09-15T01:42:15.246Z,91.87
2022-09-15T01:45:04.031Z,92.01
2022-09-15T01:47:31.362Z,92.67
2022-09-15T01:50:21.687Z,92.76
2022-09-15T01:52:53.835Z,93.55
2022-09-15T01:55:28.776Z,92.03
2022-09-15T01:57:55.662Z,92.47
2022-09-15T02:00:22.568Z,92.02
2022-09-15T02:02:59.199Z,92.42
2022-09-15T02:06:01.893Z,92.34
2022-09-15T02:08:57.303Z,92.50
2022-09-15T02:11:26.519Z,93.15
2022-09-15T02:14:20.720Z,92.33
2022-09-15T02:16:52.902Z,93.21
2022-09-15T02:19:41.685Z,93.49
2022-09-15T02:22:23.959Z,92.83
2022-09-15T02:25:00.907Z,92.92
2022-09-15T02:27:34.081Z,93.74
2022-09-15T02:30:07.887Z,93.90
2022-09-15T02:32:37.445Z,94.33
2022-09-15T02:35:08.083Z,94.07
2022-09-15T02:37:37.908Z,94.03
2022-09-15T02:40:07.128Z,94.11
2022-09-15T02:42:35.080Z,94.41
2022-09-15T02:45:03.472Z,95.13
2022-09-15T02:47:31.941Z,94.66
2022-09-15T02:49:58.841Z,95.31
2022-09-15T02:52:26.067Z,94.98
2022-09-15T02:54:53.398Z,95.08
2022-09-15T02:57:20.861Z,93.71
2022-09-15T03:00:06.595Z,93.68
2022-09-15T03:02:34.328Z,93.97
2022-09-15T03:05:01.315Z,94.27
2022-09-15T03:07:28.483Z,94.05
2022-09-15T03:09:55.426Z,94.72
2022-09-15T03:12:22.287Z,93.75
2022-09-15T03:14:49.671Z,94.58
2022-09-15T03:17:17.976Z,94.83
2022-09-15T03:19:45.234Z,94.36
2022-09-15T03:22:12.135Z,94.76
2022-09-15T03:24:39.396Z,94.84
2022-09-15T03:27:06.477Z,94.81
2022-09-15T03:29:33.335Z,93.81
2022-09-15T03:32:00.318Z,95.12
2022-09-15T03:34:27.311Z,93.84
2022-09-15T03:36:54.194Z,94.17
2022-09-15T03:39:21.056Z,94.26
2022-09-15T03:41:47.908Z,94.56
2022-09-15T03:44:15.219Z,93.35
2022-09-15T03:46:42.109Z,94.06
2022-09-15T03:49:09.175Z,93.98
2022-09-15T03:51:36.037Z,94.16
2022-09-15T03:54:03.113Z,94.50
2022-09-15T03:56:32.778Z,93.86
2022-09-15T03:59:02.886Z,94.52
2022-09-15T04:01:30.777Z,95.00
2022-09-15T04:03:58.443Z,95.48
2022-09-15T04:06:26.933Z,95.28
2022-09-15T04:08:54.968Z,95.36
2022-09-15T04:11:23.314Z,94.84
2022-09-15T04:13:50.281Z,94.29
2022-09-15T04:16:21.996Z,93.99
2022-09-15T04:18:50.876Z,94.90
2022-09-15T04:21:22.749Z,94.77
2022-09-15T04:23:51.415Z,94.90
2022-09-15T04:26:31.799Z,93.97
2022-09-15T04:29:03.633Z,93.85
2022-09-15T04:31:32.632Z,94.55
2022-09-15T04:33:59.572Z,94.48
2022-09-15T04:36:28.286Z,94.24
2022-09-15T04:38:56.757Z,94.66
2022-09-15T04:41:25.405Z,94.62
2022-09-15T04:43:52.696Z,94.50
2022-09-15T04:46:20.482Z,94.72
2022-09-15T04:48:48.837Z,94.44
2022-09-15T04:51:20.557Z,94.08
2022-09-15T04:53:48.983Z,93.92
2022-09-15T04:56:23.090Z,93.95
2022-09-15T04:59:03.862Z,93.86
2022-09-15T05:01:34.446Z,93.77
2022-09-15T05:04:03.939Z,93.80
2022-09-15T05:06:31.019Z,93.77
2022-09-15T05:08:58.506Z,94.00
2022-09-15T05:11:26.406Z,94.26
2022-09-15T05:13:53.889Z,93.60
2022-09-15T05:16:24.509Z,94.02
2022-09-15T05:18:54.398Z,93.66
2022-09-15T05:21:23.511Z,93.97
2022-09-15T05:23:54.049Z,94.64
2022-09-15T05:26:28.033Z,94.32
2022-09-15T05:28:56.727Z,94.05
2022-09-15T05:31:27.840Z,94.30
2022-09-15T05:33:55.266Z,94.19
2022-09-15T05:36:25.848Z,93.72
2022-09-15T05:38:55.432Z,93.94
2022-09-15T05:41:23.040Z,93.68
2022-09-15T05:43:50.906Z,93.00
2022-09-15T05:46:19.215Z,94.03
2022-09-15T05:48:47.209Z,93.37
2022-09-15T05:51:15.035Z,94.15
2022-09-15T05:53:42.163Z,93.85
2022-09-15T05:56:13.058Z,93.06
2022-09-15T05:58:42.871Z,94.39
2022-09-15T06:01:20.825Z,93.78
2022-09-15T06:03:47.952Z,94.53
2022-09-15T06:06:15.920Z,93.95
2022-09-15T06:08:48.275Z,93.20
2022-09-15T06:11:21.813Z,93.31
2022-09-15T06:13:49.925Z,93.77
2022-09-15T06:16:23.545Z,94.23
2022-09-15T06:18:53.129Z,93.48
2022-09-15T06:21:26.577Z,93.74
2022-09-15T06:24:04.375Z,93.06
2022-09-15T06:26:31.236Z,93.39
2022-09-15T06:29:01.382Z,93.49
2022-09-15T06:31:32.079Z,93.29
2022-09-15T06:33:59.843Z,93.38
2022-09-15T06:36:29.909Z,93.40
2022-09-15T06:38:58.301Z,94.21
2022-09-15T06:41:25.648Z,93.21
2022-09-15T06:43:52.958Z,93.19
2022-09-15T06:46:24.951Z,92.40
2022-09-15T06:48:53.410Z,92.77
2022-09-15T06:51:24.826Z,92.68
2022-09-15T06:53:53.643Z,92.13
2022-09-15T06:56:23.281Z,91.79
2022-09-15T06:58:50.822Z,90.21
2022-09-15T07:01:28.477Z,90.24
2022-09-15T07:03:58.175Z,90.63
2022-09-15T07:06:28.774Z,91.08
2022-09-15T07:08:56.583Z,91.18
2022-09-15T07:11:23.870Z,88.32
2022-09-15T07:13:51.564Z,89.79
2022-09-15T07:16:20.633Z,87.65
2022-09-15T07:18:48.600Z,88.18
2022-09-15T07:21:18.459Z,87.81
2022-09-15T07:23:45.976Z,87.82
2022-09-15T07:26:18.419Z,87.54
2022-09-15T07:28:50.026Z,86.11
2022-09-15T07:31:20.673Z,86.24
2022-09-15T07:33:48.099Z,87.06
2022-09-15T07:36:15.893Z,87.44
2022-09-15T07:38:47.736Z,86.64
2022-09-15T07:41:20.835Z,86.24
2022-09-15T07:43:50.422Z,86.15
2022-09-15T07:46:18.847Z,84.24
2022-09-15T07:48:51.289Z,83.94
2022-09-15T07:51:19.105Z,84.49
2022-09-15T07:53:48.399Z,82.34
2022-09-15T07:56:18.321Z,82.82
2022-09-15T07:58:46.543Z,83.14
2022-09-15T08:01:14.804Z,82.54
2022-09-15T08:03:48.708Z,84.26
2022-09-15T08:06:18.899Z,82.52
2022-09-15T08:08:46.036Z,81.72
2022-09-15T08:11:19.427Z,81.51
2022-09-15T08:13:49.399Z,80.96
2022-09-15T08:16:23.153Z,81.29
2022-09-15T08:18:52.263Z,81.16
2022-09-15T08:21:21.712Z,83.16
2022-09-15T08:23:59.717Z,82.83
2022-09-15T08:26:28.691Z,79.40
2022-09-15T08:28:55.744Z,79.72
2022-09-15T08:31:24.429Z,79.71
2022-09-15T08:33:53.781Z,81.24
2022-09-15T08:36:21.407Z,79.40
2022-09-15T08:38:48.467Z,80.03
2022-09-15T08:41:32.651Z,77.85
2022-09-15T08:44:37.395Z,78.12
2022-09-15T08:47:13.994Z,77.14
2022-09-15T08:49:52.547Z,78.26
2022-09-15T08:52:30.788Z,76.86
2022-09-15T08:55:00.687Z,76.74
2022-09-15T08:57:27.956Z,76.59
2022-09-15T08:59:55.072Z,77.20
2022-09-15T09:02:46.260Z,76.27
2022-09-15T09:05:36.890Z,77.42
2022-09-15T09:08:41.836Z,76.38
2022-09-15T09:11:41.213Z,78.47
2022-09-15T09:14:37.148Z,78.53
2022-09-15T09:17:47.073Z,78.98
2022-09-15T09:20:45.388Z,77.56
2022-09-15T09:23:19.922Z,78.17
2022-09-15T09:25:48.580Z,78.71
2022-09-15T09:28:30.765Z,80.13
2022-09-15T09:31:07.077Z,80.38
2022-09-15T09:33:47.765Z,80.55
2022-09-15T09:36:23.368Z,83.86
2022-09-15T09:38:51.268Z,83.99
2022-09-15T09:41:25.232Z,82.15
2022-09-15T09:43:54.708Z,83.29
2022-09-15T09:46:22.757Z,81.50
2022-09-15T09:49:03.639Z,81.62
2022-09-15T09:51:40.184Z,81.96
2022-09-15T09:54:15.276Z,81.48
2022-09-15T09:56:44.477Z,83.03
2022-09-15T09:59:42.897Z,81.37
2022-09-15T10:02:21.781Z,80.65
2022-09-15T10:04:55.142Z,79.07
2022-09-15T10:07:26.297Z,78.49
2022-09-15T10:09:57.335Z,78.01
2022-09-15T10:12:30.731Z,77.60
2022-09-15T10:15:02.704Z,76.47
2022-09-15T10:17:43.489Z,76.66
2022-09-15T10:20:35.429Z,78.33
2022-09-15T10:23:03.994Z,76.72
2022-09-15T10:25:57.663Z,77.91
2022-09-15T10:28:26.085Z,80.59
2022-09-15T10:31:14.017Z,80.36
2022-09-15T10:33:44.888Z,80.95
2022-09-15T10:36:22.813Z,81.18
2022-09-15T10:39:10.331Z,80.24
2022-09-15T10:42:02.548Z,81.87
2022-09-15T10:45:10.898Z,81.12
2022-09-15T10:47:57.687Z,81.22
2022-09-15T10:50:36.248Z,78.87
2022-09-15T10:54:07.724Z,80.48
2022-09-15T10:56:42.872Z,73.16
2022-09-15T10:59:29.491Z,72.55
2022-09-15T11:02:29.825Z,72.80
2022-09-15T11:05:23.018Z,73.38
2022-09-15T11:08:08.519Z,73.30
2022-09-15T11:10:57.240Z,69.16
2022-09-15T11:14:08.821Z,69.30
2022-09-15T11:16:55.337Z,70.74
2022-09-15T11:19:53.661Z,70.13
2022-09-15T11:22:32.495Z,68.48
2022-09-15T11:25:14.457Z,66.68
2022-09-15T11:27:53.983Z,66.91
2022-09-15T11:30:29.905Z,64.48
2022-09-15T11:33:09.178Z,68.29
2022-09-15T11:35:54.428Z,60.58
2022-09-15T11:38:53.848Z,60.18
2022-09-15T11:41:40.704Z,60.67
2022-09-15T11:44:36.416Z,60.81
2022-09-15T11:47:30.643Z,65.55
2022-09-15T11:50:18.529Z,61.79
2022-09-15T11:53:16.661Z,61.79
2022-09-15T11:56:05.482Z,59.83
2022-09-15T11:59:01.459Z,64.13
2022-09-15T12:01:41.835Z,64.92
2022-09-15T12:04:17.184Z,60.67
2022-09-15T12:07:02.482Z,62.38
2022-09-15T12:09:29.454Z,59.43
2022-09-15T12:12:06.172Z,63.65
2022-09-15T12:14:40.815Z,59.59
2022-09-15T12:17:11.972Z,62.36
2022-09-15T12:19:55.943Z,53.23
2022-09-15T12:22:41.318Z,56.34
2022-09-15T12:25:28.791Z,57.10
2022-09-15T12:28:50.944Z,56.69
2022-09-15T12:31:28.214Z,55.64
2022-09-15T12:34:06.177Z,55.85
2022-09-15T12:36:44.008Z,58.37
2022-09-15T12:39:36.684Z,56.88
2022-09-15T12:42:26.624Z,56.88
2022-09-15T12:44:56.783Z,59.36
2022-09-15T12:47:41.872Z,61.02
2022-09-15T12:50:34.328Z,63.54
2022-09-15T12:53:15.106Z,64.27
2022-09-15T12:55:58.082Z,64.70
2022-09-15T12:58:46.289Z,62.81
2022-09-15T13:01:19.621Z,63.85
2022-09-15T13:03:47.384Z,67.43
2022-09-15T13:06:20.774Z,68.60
2022-09-15T13:09:05.674Z,67.94
2022-09-15T13:11:41.985Z,68.09
2022-09-15T13:14:27.883Z,67.55
2022-09-15T13:17:16.975Z,68.08
2022-09-15T13:19:51.527Z,68.48
2022-09-15T13:22:31.286Z,68.59
2022-09-15T13:25:15.608Z,68.05
2022-09-15T13:27:53.637Z,65.98
2022-09-15T13:30:47.719Z,66.74
2022-09-15T13:40:17.637Z,66.45
2022-09-15T13:43:03.073Z,63.76
2022-09-15T13:45:50.509Z,62.91
2022-09-15T13:48:50.451Z,63.00
2022-09-15T13:51:26.975Z,59.04
2022-09-15T13:54:02.359Z,60.59
2022-09-15T13:56:35.514Z,62.48
2022-09-15T13:59:13.524Z,60.08
2022-09-15T14:01:43.059Z,60.38
2022-09-15T14:04:22.452Z,61.44
2022-09-15T14:06:54.996Z,61.04
2022-09-15T14:09:28.502Z,63.07
2022-09-15T14:12:01.670Z,64.65
2022-09-15T14:14:31.340Z,66.05
2022-09-15T14:16:58.348Z,67.71
2022-09-15T14:19:37.991Z,65.52
2022-09-15T14:22:31.380Z,66.14
2022-09-15T14:25:04.332Z,66.26
2022-09-15T14:27:35.129Z,66.52
2022-09-15T14:30:06.306Z,63.50
2022-09-15T14:32:39.779Z,63.65
2022-09-15T14:35:09.711Z,62.93
2022-09-15T14:37:36.707Z,63.49
2022-09-15T14:40:20.638Z,62.96
2022-09-15T14:42:55.300Z,62.72
2022-09-15T14:45:56.676Z,63.55
2022-09-15T14:48:26.779Z,63.71
2022-09-15T14:51:01.573Z,63.53
2022-09-15T14:53:35.283Z,63.67
2022-09-15T14:56:27.444Z,66.29
2022-09-15T14:59:04.302Z,65.15
2022-09-15T15:01:55.910Z,65.62
2022-09-15T15:04:36.717Z,66.27
2022-09-15T15:07:23.285Z,65.85
2022-09-15T15:09:58.298Z,65.98
2022-09-15T15:12:34.189Z,65.85
2022-09-15T15:15:01.964Z,65.30
2022-09-15T15:17:45.228Z,66.79
2022-09-15T15:20:22.645Z,66.89
2022-09-15T15:23:12.393Z,67.27
2022-09-15T15:25:39.932Z,68.45
2022-09-15T15:28:07.527Z,67.38
2022-09-15T15:30:45.042Z,67.50
2022-09-15T15:33:27.657Z,67.47
2022-09-15T15:36:08.051Z,68.13
2022-09-15T15:38:54.723Z,68.38
2022-09-15T15:41:23.436Z,67.40
2022-09-15T15:44:08.744Z,67.05
2022-09-15T15:47:02.708Z,67.48
2022-09-15T15:49:32.707Z,68.47
2022-09-15T15:52:01.588Z,67.11
2022-09-15T15:54:29.270Z,68.59
2022-09-15T15:57:19.759Z,69.16
2022-09-15T15:59:47.255Z,68.19
2022-09-15T16:02:14.181Z,67.81
2022-09-15T16:04:41.128Z,67.76
2022-09-15T16:07:17.882Z,66.93
2022-09-15T16:09:46.753Z,67.65
2022-09-15T16:12:14.524Z,67.63
2022-09-15T16:14:41.484Z,68.79
2022-09-15T16:17:08.420Z,69.08
2022-09-15T16:19:35.272Z,70.08
2022-09-15T16:22:03.039Z,69.14
2022-09-15T16:24:29.968Z,69.60
2022-09-15T16:26:57.116Z,68.58
2022-09-15T16:29:28.102Z,68.99
2022-09-15T16:31:55.213Z,68.98
2022-09-15T16:34:22.499Z,69.73
2022-09-15T16:36:49.380Z,69.79
2022-09-15T16:39:16.222Z,69.77
2022-09-15T16:41:43.188Z,69.94
2022-09-15T16:44:20.243Z,69.63
2022-09-15T16:46:47.159Z,69.98
2022-09-15T16:49:14.362Z,70.67
2022-09-15T16:51:41.468Z,70.40
2022-09-15T16:54:17.796Z,70.25
2022-09-15T16:56:46.077Z,71.84
2022-09-15T16:59:13.244Z,71.27
2022-09-15T17:01:40.892Z,72.21
2022-09-15T17:04:16.453Z,72.13
2022-09-15T17:06:43.788Z,71.56
2022-09-15T17:09:10.716Z,70.92
2022-09-15T17:11:37.871Z,72.05
2022-09-15T17:14:05.144Z,71.24
2022-09-15T17:16:32.096Z,72.27
2022-09-15T17:18:59.068Z,71.90
2022-09-15T17:21:26.332Z,71.95
2022-09-15T17:23:53.301Z,71.67
2022-09-15T17:26:30.553Z,72.29
2022-09-15T17:28:58.384Z,73.36
2022-09-15T17:31:25.806Z,72.15
2022-09-15T17:33:52.979Z,72.51
2022-09-15T17:36:20.212Z,71.96
2022-09-15T17:38:48.683Z,73.95
2022-09-15T17:41:18.856Z,72.87
2022-09-15T17:43:46.633Z,73.17
2022-09-15T17:46:13.847Z,73.63
2022-09-15T17:48:40.827Z,74.28
2022-09-15T17:51:13.047Z,74.30
2022-09-15T17:53:40.264Z,74.04
2022-09-15T17:56:07.156Z,74.39
2022-09-15T17:58:34.287Z,74.30
2022-09-15T18:01:01.253Z,75.08
2022-09-15T18:03:33.223Z,75.00
2022-09-15T18:06:03.976Z,74.86
2022-09-15T18:08:35.707Z,75.40
2022-09-15T18:11:04.511Z,74.57
2022-09-15T18:13:31.520Z,74.71
2022-09-15T18:16:07.773Z,74.88
2022-09-15T18:18:34.811Z,75.63
2022-09-15T18:21:07.611Z,76.71
2022-09-15T18:23:34.576Z,76.09
2022-09-15T18:26:02.094Z,82.66
2022-09-15T18:28:29.167Z,83.05
2022-09-15T18:30:56.085Z,86.10
2022-09-15T18:33:25.453Z,87.01
2022-09-15T18:35:56.483Z,86.60
2022-09-15T18:38:24.332Z,86.42
2022-09-15T18:40:55.222Z,87.12
2022-09-15T18:43:25.059Z,88.97
2022-09-15T18:46:01.422Z,89.86
2022-09-15T18:48:29.414Z,89.53
2022-09-15T18:50:56.411Z,90.04
2022-09-15T18:53:23.609Z,90.69
2022-09-15T18:55:51.412Z,89.27
2022-09-15T18:58:19.378Z,89.10
2022-09-15T19:00:48.227Z,88.74
2022-09-15T19:03:15.081Z,90.93
2022-09-15T19:05:42.272Z,90.37
2022-09-15T19:08:10.840Z,89.75
2022-09-15T19:10:40.589Z,89.80
2022-09-15T19:13:07.604Z,90.26
2022-09-15T19:15:35.085Z,89.15
2022-09-15T19:18:02.060Z,89.15
2022-09-15T19:20:29.834Z,89.23
2022-09-15T19:22:58.171Z,89.10
2022-09-15T19:25:25.170Z,90.26
2022-09-15T19:27:52.052Z,89.56
2022-09-15T19:30:18.989Z,90.82
2022-09-15T19:32:45.950Z,90.99
2022-09-15T19:35:12.885Z,91.18
2022-09-15T19:37:42.319Z,91.02
2022-09-15T19:40:14.206Z,90.30
2022-09-15T19:42:43.170Z,91.64
2022-09-15T19:45:12.636Z,92.19
2022-09-15T19:47:40.665Z,91.47
2022-09-15T19:50:11.557Z,91.50
2022-09-15T19:52:38.544Z,91.17
2022-09-15T19:55:07.952Z,91.10
2022-09-15T19:57:38.406Z,92.46
2022-09-15T20:00:06.656Z,92.37
2022-09-15T20:02:33.585Z,92.66
2022-09-15T20:05:00.487Z,94.12
2022-09-15T20:07:27.484Z,94.94
2022-09-15T20:09:54.344Z,94.43
2022-09-15T20:14:53.099Z,95.39
2022-09-15T20:17:20.144Z,95.73
2022-09-15T20:19:47.104Z,95.07
2022-09-15T20:22:14.262Z,96.19
2022-09-15T20:24:41.151Z,95.35
2022-09-15T20:27:08.824Z,95.89
2022-09-15T20:29:35.744Z,94.42
2022-09-15T20:32:02.829Z,95.43
2022-09-15T20:34:29.817Z,95.68
2022-09-15T20:36:56.703Z,95.89
2022-09-15T20:39:24.377Z,95.87
2022-09-15T20:41:51.322Z,95.13
2022-09-15T20:44:18.202Z,94.76
2022-09-15T20:46:45.108Z,95.95
2022-09-15T20:49:12.452Z,95.34
2022-09-15T20:51:39.363Z,95.15
2022-09-15T20:54:06.402Z,95.37
2022-09-15T20:56:35.635Z,95.19
2022-09-15T20:59:04.355Z,95.88
2022-09-15T21:01:37.184Z,95.22
2022-09-15T21:04:06.136Z,95.80
2022-09-15T21:06:34.026Z,95.10
2022-09-15T21:09:01.139Z,95.18
2022-09-15T21:11:29.944Z,94.49
2022-09-15T21:13:57.719Z,94.23
2022-09-15T21:16:28.046Z,94.33
2022-09-15T21:18:57.219Z,94.77
2022-09-15T21:21:30.954Z,95.30
2022-09-15T21:24:05.955Z,95.02
2022-09-15T21:27:01.009Z,94.72
2022-09-15T21:29:28.898Z,95.07
2022-09-15T21:31:56.320Z,95.93
2022-09-15T21:34:23.813Z,95.91
2022-09-15T21:36:51.687Z,96.31
2022-09-15T21:39:18.622Z,95.18
2022-09-15T21:41:45.597Z,96.70
2022-09-15T21:44:12.512Z,96.22
2022-09-15T21:46:39.363Z,95.66
2022-09-15T21:49:06.249Z,94.72
2022-09-15T21:51:33.368Z,95.31
2022-09-15T21:54:00.750Z,95.33
2022-09-15T21:56:29.665Z,95.65
2022-09-15T21:58:56.936Z,96.24
2022-09-15T22:01:27.761Z,96.23
2022-09-15T22:04:06.612Z,97.01
2022-09-15T22:06:37.346Z,97.56
2022-09-15T22:09:08.457Z,97.60
2022-09-15T22:11:36.571Z,97.84
2022-09-15T22:14:08.052Z,98.15
2022-09-15T22:16:37.519Z,97.63
2022-09-15T22:19:06.882Z,97.39
2022-09-15T22:21:36.635Z,97.41
2022-09-15T22:24:07.083Z,97.95
2022-09-15T22:26:37.736Z,97.81
2022-09-15T22:29:05.788Z,97.43
2022-09-15T22:31:33.347Z,96.79
2022-09-15T22:34:00.286Z,96.26
2022-09-15T22:36:30.429Z,98.05
2022-09-15T22:39:06.102Z,97.34
2022-09-15T22:41:36.961Z,97.55
2022-09-15T22:44:06.173Z,97.62
2022-09-15T22:46:33.477Z,97.33
2022-09-15T22:49:00.428Z,97.83
2022-09-15T22:51:27.366Z,98.12
2022-09-15T22:53:56.680Z,98.18
2022-09-15T22:56:25.537Z,97.82
2022-09-15T22:58:52.829Z,96.94
2022-09-15T23:01:27.847Z,96.99
2022-09-15T23:03:58.966Z,97.12
2022-09-15T23:06:28.980Z,97.37
2022-09-15T23:09:00.469Z,97.94
2022-09-15T23:11:29.244Z,97.67
2022-09-15T23:13:56.859Z,98.24
2022-09-15T23:16:25.259Z,98.35
2022-09-15T23:18:53.463Z,98.14
2022-09-15T23:21:21.321Z,98.63
2022-09-15T23:23:49.579Z,98.84
2022-09-15T23:26:20.897Z,99.64
2022-09-15T23:28:51.558Z,99.64
2022-09-15T23:31:19.936Z,100.00
2022-09-15T23:33:47.349Z,100.00
2022-09-15T23:36:19.383Z,100.00
2022-09-15T23:38:48.102Z,100.00
2022-09-15T23:41:17.288Z,100.00
2022-09-15T23:43:45.339Z,100.00
2022-09-15T23:46:12.353Z,100.00
2022-09-15T23:48:39.656Z,100.00
2022-09-15T23:51:06.575Z,100.00
2022-09-15T23:53:34.119Z,100.00
2022-09-15T23:56:01.320Z,100.00
2022-09-15T23:58:28.191Z,100.00
